createdAt,value
2018-03-11T00:00:02.131Z,9.63
2018-03-11T00:01:01.774Z,9.63
2018-03-11T00:02:01.828Z,9.63
2018-03-11T00:03:01.782Z,9.63
2018-03-11T00:04:01.918Z,9.63
2018-03-11T00:05:01.817Z,9.63
2018-03-11T00:06:01.801Z,9.63
2018-03-11T00:07:01.808Z,9.56
2018-03-11T00:08:01.802Z,9.63
2018-03-11T00:09:03.205Z,9.63
2018-03-11T00:10:02.312Z,9.63
2018-03-11T00:11:02.060Z,9.63
2018-03-11T00:12:01.822Z,9.63
2018-03-11T00:13:01.821Z,9.63
2018-03-11T00:14:01.970Z,9.56
2018-03-11T00:15:01.830Z,9.56
2018-03-11T00:16:02.002Z,9.56
2018-03-11T00:17:01.890Z,9.63
2018-03-11T00:18:01.949Z,9.63
2018-03-11T00:19:01.876Z,9.63
2018-03-11T00:20:01.856Z,9.63
2018-03-11T00:21:01.910Z,9.56
2018-03-11T00:22:01.828Z,9.63
2018-03-11T00:23:01.840Z,9.56
2018-03-11T00:24:01.854Z,9.63
2018-03-11T00:25:01.875Z,9.56
2018-03-11T00:26:02.118Z,9.63
2018-03-11T00:27:01.993Z,9.63
2018-03-11T00:28:01.884Z,9.56
2018-03-11T00:29:01.878Z,9.63
2018-03-11T00:30:01.872Z,9.63
2018-03-11T00:31:01.874Z,9.63
2018-03-11T00:32:02.045Z,9.63
2018-03-11T00:33:01.964Z,9.69
2018-03-11T00:34:01.971Z,9.69
2018-03-11T00:35:01.963Z,9.69
2018-03-11T00:36:01.904Z,9.69
2018-03-11T00:37:01.999Z,9.63
2018-03-11T00:38:01.913Z,9.69
2018-03-11T00:39:01.939Z,9.69
2018-03-11T00:40:01.912Z,9.69
2018-03-11T00:41:01.900Z,9.75
2018-03-11T00:42:01.942Z,9.69
2018-03-11T00:43:01.924Z,9.69
2018-03-11T00:44:01.924Z,9.69
2018-03-11T00:45:01.923Z,9.75
2018-03-11T00:46:01.936Z,9.75
2018-03-11T00:47:02.013Z,9.75
2018-03-11T00:48:01.963Z,9.81
2018-03-11T00:49:02.278Z,9.75
2018-03-11T00:50:01.931Z,9.81
2018-03-11T00:51:01.945Z,9.75
2018-03-11T00:52:01.935Z,9.75
2018-03-11T00:53:01.960Z,9.75
2018-03-11T00:54:01.960Z,9.75
2018-03-11T00:55:01.952Z,9.75
2018-03-11T00:56:01.957Z,9.75
2018-03-11T00:57:01.936Z,9.75
2018-03-11T00:58:01.973Z,9.75
2018-03-11T00:59:02.038Z,9.75
2018-03-11T01:00:01.956Z,9.75
2018-03-11T01:01:01.959Z,9.75
2018-03-11T01:02:02.034Z,9.75
2018-03-11T01:03:02.041Z,9.75
2018-03-11T01:04:02.057Z,9.81
2018-03-11T01:05:01.988Z,9.75
2018-03-11T01:06:02.038Z,9.75
2018-03-11T01:07:02.309Z,9.75
2018-03-11T01:08:02.006Z,9.75
2018-03-11T01:09:01.989Z,9.81
2018-03-11T01:10:02.164Z,9.75
2018-03-11T01:11:02.048Z,9.75
2018-03-11T01:12:01.993Z,9.75
2018-03-11T01:13:02.045Z,9.81
2018-03-11T01:14:02.067Z,9.75
2018-03-11T01:15:02.391Z,9.75
2018-03-11T01:16:02.012Z,9.75
2018-03-11T01:17:02.341Z,9.75
2018-03-11T01:18:02.026Z,9.75
2018-03-11T01:19:05.767Z,9.75
2018-03-11T01:20:02.838Z,9.75
2018-03-11T01:21:07.508Z,9.69
2018-03-11T01:22:03.204Z,9.69
2018-03-11T01:23:03.283Z,9.69
2018-03-11T01:24:06.036Z,9.69
2018-03-11T01:25:21.616Z,9.69
2018-03-11T01:26:02.069Z,9.69
2018-03-11T01:27:02.047Z,9.69
2018-03-11T01:28:02.093Z,9.63
2018-03-11T01:29:02.054Z,9.63
2018-03-11T01:30:02.075Z,9.63
2018-03-11T01:31:02.112Z,9.63
2018-03-11T01:32:02.063Z,9.63
2018-03-11T01:33:02.086Z,9.63
2018-03-11T01:34:02.070Z,9.63
2018-03-11T01:35:02.404Z,9.63
2018-03-11T01:36:02.066Z,9.63
2018-03-11T01:37:02.072Z,9.63
2018-03-11T01:38:02.099Z,9.63
2018-03-11T01:39:02.084Z,9.63
2018-03-11T01:40:02.091Z,9.63
2018-03-11T01:41:02.106Z,9.63
2018-03-11T01:42:02.091Z,9.63
2018-03-11T01:43:02.105Z,9.56
2018-03-11T01:44:02.091Z,9.63
2018-03-11T01:45:02.111Z,9.63
2018-03-11T01:46:02.134Z,9.63
2018-03-11T01:47:02.148Z,9.56
2018-03-11T01:48:02.105Z,9.56
2018-03-11T01:49:02.145Z,9.56
2018-03-11T01:50:02.130Z,9.56
2018-03-11T01:51:02.129Z,9.56
2018-03-11T01:52:02.124Z,9.56
2018-03-11T01:53:02.138Z,9.56
2018-03-11T01:54:02.136Z,9.63
2018-03-11T01:55:02.153Z,9.63
2018-03-11T01:56:02.143Z,9.63
2018-03-11T01:57:02.206Z,9.56
2018-03-11T01:58:02.180Z,9.63
2018-03-11T01:59:02.170Z,9.69
2018-03-11T02:00:02.152Z,9.69
2018-03-11T02:01:02.166Z,9.69
2018-03-11T02:02:02.179Z,9.69
2018-03-11T02:03:02.166Z,9.69
2018-03-11T02:04:02.209Z,9.69
2018-03-11T02:05:02.230Z,9.75
2018-03-11T02:06:02.219Z,9.75
2018-03-11T02:07:02.182Z,9.75
2018-03-11T02:08:02.214Z,9.75
2018-03-11T02:09:02.220Z,9.81
2018-03-11T02:10:02.196Z,9.81
2018-03-11T02:11:02.209Z,9.81
2018-03-11T02:12:02.214Z,9.81
2018-03-11T02:13:02.219Z,9.81
2018-03-11T02:14:02.211Z,9.88
2018-03-11T02:15:02.277Z,9.81
2018-03-11T02:16:02.218Z,9.81
2018-03-11T02:17:02.227Z,9.88
2018-03-11T02:18:02.231Z,9.81
2018-03-11T02:19:02.241Z,9.88
2018-03-11T02:20:02.262Z,9.81
2018-03-11T02:21:02.223Z,9.88
2018-03-11T02:22:02.266Z,9.88
2018-03-11T02:23:02.241Z,9.94
2018-03-11T02:24:02.253Z,9.88
2018-03-11T02:25:02.256Z,9.88
2018-03-11T02:26:02.284Z,9.88
2018-03-11T02:27:02.278Z,9.88
2018-03-11T02:28:02.255Z,9.88
2018-03-11T02:29:02.266Z,9.88
2018-03-11T02:30:02.278Z,9.88
2018-03-11T02:31:02.260Z,9.88
2018-03-11T02:32:02.272Z,9.88
2018-03-11T02:33:02.310Z,9.94
2018-03-11T02:34:02.290Z,9.88
2018-03-11T02:35:02.288Z,9.94
2018-03-11T02:36:02.313Z,9.88
2018-03-11T02:37:02.304Z,9.94
2018-03-11T02:38:02.288Z,9.94
2018-03-11T02:39:02.292Z,9.94
2018-03-11T02:40:02.353Z,10
2018-03-11T02:41:02.346Z,9.94
2018-03-11T02:42:02.303Z,9.94
2018-03-11T02:43:02.318Z,9.94
2018-03-11T02:44:02.323Z,9.88
2018-03-11T02:45:02.391Z,9.94
2018-03-11T02:46:02.332Z,9.94
2018-03-11T02:47:02.359Z,9.94
2018-03-11T02:48:02.347Z,9.94
2018-03-11T02:49:02.418Z,9.94
2018-03-11T02:50:02.436Z,9.94
2018-03-11T02:51:02.392Z,10
2018-03-11T02:52:02.366Z,10
2018-03-11T02:53:02.369Z,10
2018-03-11T02:54:02.379Z,10
2018-03-11T02:55:02.389Z,10
2018-03-11T02:56:02.371Z,10.06
2018-03-11T02:57:02.376Z,10
2018-03-11T02:58:02.411Z,10
2018-03-11T02:59:02.403Z,10
2018-03-11T03:00:02.377Z,10
2018-03-11T03:01:02.390Z,10
2018-03-11T03:02:02.383Z,10
2018-03-11T03:03:02.403Z,10
2018-03-11T03:04:02.437Z,10
2018-03-11T03:05:02.441Z,10.06
2018-03-11T03:06:02.379Z,10.06
2018-03-11T03:07:02.389Z,10.06
2018-03-11T03:08:02.405Z,10.06
2018-03-11T03:09:02.407Z,10
2018-03-11T03:10:02.640Z,10.06
2018-03-11T03:11:02.420Z,10
2018-03-11T03:12:02.412Z,10.06
2018-03-11T03:13:02.402Z,10.06
2018-03-11T03:14:02.414Z,10
2018-03-11T03:15:02.483Z,10.06
2018-03-11T03:16:02.443Z,10.06
2018-03-11T03:17:02.529Z,10.06
2018-03-11T03:18:02.486Z,10.06
2018-03-11T03:19:02.461Z,10.06
2018-03-11T03:20:02.444Z,10.13
2018-03-11T03:21:02.458Z,10.06
2018-03-11T03:22:02.452Z,10.13
2018-03-11T03:23:02.451Z,10.06
2018-03-11T03:24:02.450Z,10.13
2018-03-11T03:25:02.452Z,10.06
2018-03-11T03:26:02.487Z,10.13
2018-03-11T03:27:02.491Z,10.13
2018-03-11T03:28:02.471Z,10.13
2018-03-11T03:29:02.467Z,10.13
2018-03-11T03:30:02.503Z,10.13
2018-03-11T03:31:02.802Z,10.13
2018-03-11T03:32:02.560Z,10.13
2018-03-11T03:33:02.565Z,10.13
2018-03-11T03:34:02.490Z,10.13
2018-03-11T03:35:02.476Z,10.13
2018-03-11T03:36:02.502Z,10.13
2018-03-11T03:37:02.493Z,10.13
2018-03-11T03:38:02.478Z,10.13
2018-03-11T03:39:02.480Z,10.13
2018-03-11T03:40:02.482Z,10.13
2018-03-11T03:41:02.484Z,10.13
2018-03-11T03:42:03.021Z,10.13
2018-03-11T03:43:03.350Z,10.19
2018-03-11T03:44:02.533Z,10.13
2018-03-11T03:45:02.740Z,10.19
2018-03-11T03:46:02.800Z,10.13
2018-03-11T03:47:03.487Z,10.13
2018-03-11T03:48:02.539Z,10.19
2018-03-11T03:49:02.746Z,10.19
2018-03-11T03:50:02.913Z,10.19
2018-03-11T03:51:02.594Z,10.13
2018-03-11T03:52:03.351Z,10.19
2018-03-11T03:53:02.533Z,10.19
2018-03-11T03:54:02.530Z,10.13
2018-03-11T03:55:02.547Z,10.13
2018-03-11T03:56:02.522Z,10.13
2018-03-11T03:57:02.530Z,10.13
2018-03-11T03:58:02.546Z,10.13
2018-03-11T03:59:02.568Z,10.19
2018-03-11T04:00:02.545Z,10.19
2018-03-11T04:01:02.548Z,10.13
2018-03-11T04:02:02.621Z,10.13
2018-03-11T04:03:02.588Z,10.13
2018-03-11T04:04:02.548Z,10.19
2018-03-11T04:05:02.547Z,10.13
2018-03-11T04:06:02.785Z,10.19
2018-03-11T04:07:02.686Z,10.19
2018-03-11T04:08:02.702Z,10.13
2018-03-11T04:09:02.699Z,10.13
2018-03-11T04:10:02.711Z,10.19
2018-03-11T04:11:02.653Z,10.19
2018-03-11T04:12:02.644Z,10.19
2018-03-11T04:13:02.667Z,10.19
2018-03-11T04:14:02.689Z,10.19
2018-03-11T04:15:02.701Z,10.19
2018-03-11T04:16:02.590Z,10.19
2018-03-11T04:17:02.662Z,10.19
2018-03-11T04:18:02.632Z,10.19
2018-03-11T04:19:02.618Z,10.19
2018-03-11T04:20:02.620Z,10.19
2018-03-11T04:21:02.735Z,10.19
2018-03-11T04:22:02.703Z,10.25
2018-03-11T04:23:02.762Z,10.25
2018-03-11T04:24:02.697Z,10.25
2018-03-11T04:25:02.696Z,10.25
2018-03-11T04:26:02.714Z,10.31
2018-03-11T04:27:02.717Z,10.25
2018-03-11T04:28:02.732Z,10.25
2018-03-11T04:29:02.725Z,10.25
2018-03-11T04:30:02.732Z,10.25
2018-03-11T04:31:02.745Z,10.25
2018-03-11T04:32:02.751Z,10.25
2018-03-11T04:33:02.767Z,10.25
2018-03-11T04:34:02.731Z,10.25
2018-03-11T04:35:02.771Z,10.25
2018-03-11T04:36:02.729Z,10.19
2018-03-11T04:37:02.742Z,10.25
2018-03-11T04:38:03.027Z,10.19
2018-03-11T04:39:02.726Z,10.19
2018-03-11T04:40:02.799Z,10.25
2018-03-11T04:41:02.777Z,10.19
2018-03-11T04:42:02.720Z,10.19
2018-03-11T04:43:02.793Z,10.19
2018-03-11T04:44:02.874Z,10.19
2018-03-11T04:45:02.762Z,10.25
2018-03-11T04:46:02.779Z,10.19
2018-03-11T04:47:02.931Z,10.25
2018-03-11T04:48:02.904Z,10.25
2018-03-11T04:49:02.808Z,10.19
2018-03-11T04:50:02.786Z,10.19
2018-03-11T04:51:02.800Z,10.19
2018-03-11T04:52:02.909Z,10.25
2018-03-11T04:53:02.706Z,10.19
2018-03-11T04:54:02.701Z,10.19
2018-03-11T04:55:02.718Z,10.19
2018-03-11T04:56:02.791Z,10.19
2018-03-11T04:57:02.720Z,10.19
2018-03-11T04:58:02.736Z,10.19
2018-03-11T04:59:03.036Z,10.19
2018-03-11T05:00:02.737Z,10.19
2018-03-11T05:01:02.752Z,10.13
2018-03-11T05:02:02.755Z,10.13
2018-03-11T05:03:02.745Z,10.13
2018-03-11T05:04:02.767Z,10.13
2018-03-11T05:05:02.814Z,10.13
2018-03-11T05:06:02.799Z,10.13
2018-03-11T05:07:02.779Z,10.13
2018-03-11T05:08:02.917Z,10.13
2018-03-11T05:09:02.758Z,10.13
2018-03-11T05:10:02.781Z,10.13
2018-03-11T05:11:02.756Z,10.06
2018-03-11T05:12:02.788Z,10.06
2018-03-11T05:13:02.762Z,10.13
2018-03-11T05:14:02.770Z,10.06
2018-03-11T05:15:03.048Z,10.13
2018-03-11T05:16:02.788Z,10.06
2018-03-11T05:17:02.891Z,10.06
2018-03-11T05:18:02.792Z,10.06
2018-03-11T05:19:02.802Z,10.06
2018-03-11T05:20:02.827Z,10.06
2018-03-11T05:21:02.791Z,10.06
2018-03-11T05:22:02.801Z,10.06
2018-03-11T05:23:02.847Z,10
2018-03-11T05:24:02.830Z,10
2018-03-11T05:25:02.803Z,10
2018-03-11T05:26:02.862Z,10
2018-03-11T05:27:02.810Z,10.06
2018-03-11T05:28:02.816Z,10
2018-03-11T05:29:02.810Z,10.06
2018-03-11T05:30:02.845Z,10
2018-03-11T05:31:02.873Z,10
2018-03-11T05:32:02.881Z,10
2018-03-11T05:33:02.919Z,9.94
2018-03-11T05:34:02.881Z,10
2018-03-11T05:35:02.937Z,10
2018-03-11T05:36:02.852Z,9.94
2018-03-11T05:37:02.864Z,10
2018-03-11T05:38:02.871Z,10
2018-03-11T05:39:02.868Z,10
2018-03-11T05:40:02.873Z,9.94
2018-03-11T05:41:02.881Z,9.94
2018-03-11T05:42:02.883Z,9.88
2018-03-11T05:43:02.878Z,9.94
2018-03-11T05:44:02.871Z,9.88
2018-03-11T05:45:02.903Z,9.88
2018-03-11T05:46:02.883Z,9.88
2018-03-11T05:47:02.939Z,9.94
2018-03-11T05:48:02.891Z,9.94
2018-03-11T05:49:02.898Z,9.88
2018-03-11T05:50:02.896Z,9.94
2018-03-11T05:51:02.898Z,9.88
2018-03-11T05:52:02.957Z,9.88
2018-03-11T05:53:02.914Z,9.88
2018-03-11T05:54:02.918Z,9.88
2018-03-11T05:55:02.931Z,9.88
2018-03-11T05:56:02.932Z,9.88
2018-03-11T05:57:02.925Z,9.88
2018-03-11T05:58:02.951Z,9.88
2018-03-11T05:59:02.930Z,9.88
2018-03-11T06:00:02.962Z,9.88
2018-03-11T06:01:02.950Z,9.88
2018-03-11T06:02:02.977Z,9.94
2018-03-11T06:03:02.943Z,9.88
2018-03-11T06:04:02.976Z,9.88
2018-03-11T06:05:02.969Z,9.88
2018-03-11T06:06:02.958Z,9.88
2018-03-11T06:07:02.962Z,9.88
2018-03-11T06:08:02.965Z,9.88
2018-03-11T06:09:02.958Z,9.88
2018-03-11T06:10:02.967Z,9.88
2018-03-11T06:11:03.002Z,9.81
2018-03-11T06:12:02.963Z,9.81
2018-03-11T06:13:02.965Z,9.81
2018-03-11T06:14:02.988Z,9.88
2018-03-11T06:15:02.989Z,9.81
2018-03-11T06:16:02.997Z,9.81
2018-03-11T06:17:02.985Z,9.81
2018-03-11T06:18:03.063Z,9.81
2018-03-11T06:19:03.047Z,9.81
2018-03-11T06:20:03.076Z,9.81
2018-03-11T06:21:02.995Z,9.81
2018-03-11T06:22:02.998Z,9.81
2018-03-11T06:23:02.994Z,9.81
2018-03-11T06:24:03.010Z,9.81
2018-03-11T06:25:03.024Z,9.81
2018-03-11T06:26:03.006Z,9.81
2018-03-11T06:27:03.016Z,9.81
2018-03-11T06:28:03.027Z,9.75
2018-03-11T06:29:03.017Z,9.75
2018-03-11T06:30:03.054Z,9.75
2018-03-11T06:31:03.046Z,9.75
2018-03-11T06:32:03.051Z,9.81
2018-03-11T06:33:03.042Z,9.75
2018-03-11T06:34:03.057Z,9.75
2018-03-11T06:35:03.056Z,9.81
2018-03-11T06:36:03.061Z,9.75
2018-03-11T06:37:03.093Z,9.81
2018-03-11T06:38:03.085Z,9.75
2018-03-11T06:39:03.083Z,9.75
2018-03-11T06:40:03.064Z,9.81
2018-03-11T06:41:03.102Z,9.81
2018-03-11T06:42:03.072Z,9.88
2018-03-11T06:43:03.144Z,9.81
2018-03-11T06:44:03.080Z,9.88
2018-03-11T06:45:03.079Z,9.81
2018-03-11T06:46:03.137Z,9.88
2018-03-11T06:47:03.122Z,9.88
2018-03-11T06:48:03.123Z,9.88
2018-03-11T06:49:03.104Z,9.94
2018-03-11T06:50:03.106Z,9.94
2018-03-11T06:51:03.122Z,10
2018-03-11T06:52:03.091Z,10
2018-03-11T06:53:03.092Z,10
2018-03-11T06:54:03.104Z,10.06
2018-03-11T06:55:03.109Z,10.06
2018-03-11T06:56:03.144Z,10.13
2018-03-11T06:57:03.111Z,10.13
2018-03-11T06:58:03.197Z,10.19
2018-03-11T06:59:03.172Z,10.19
2018-03-11T07:00:03.136Z,10.19
2018-03-11T07:01:03.131Z,10.25
2018-03-11T07:02:03.179Z,10.25
2018-03-11T07:03:03.134Z,10.31
2018-03-11T07:04:03.148Z,10.31
2018-03-11T07:05:03.155Z,10.31
2018-03-11T07:06:03.156Z,10.44
2018-03-11T07:07:03.147Z,10.44
2018-03-11T07:08:03.165Z,10.5
2018-03-11T07:09:03.166Z,10.5
2018-03-11T07:10:03.204Z,10.5
2018-03-11T07:11:03.172Z,10.5
2018-03-11T07:12:03.201Z,10.56
2018-03-11T07:13:03.259Z,10.56
2018-03-11T07:14:03.171Z,10.56
2018-03-11T07:15:03.178Z,10.56
2018-03-11T07:16:03.166Z,10.56
2018-03-11T07:17:03.172Z,10.63
2018-03-11T07:18:03.171Z,10.56
2018-03-11T07:19:03.178Z,10.56
2018-03-11T07:20:03.192Z,10.56
2018-03-11T07:21:03.176Z,10.56
2018-03-11T07:22:03.171Z,10.56
2018-03-11T07:23:03.186Z,10.5
2018-03-11T07:24:03.201Z,10.5
2018-03-11T07:25:03.264Z,10.5
2018-03-11T07:26:03.231Z,10.5
2018-03-11T07:27:03.263Z,10.5
2018-03-11T07:28:03.222Z,10.44
2018-03-11T07:29:03.224Z,10.5
2018-03-11T07:30:03.206Z,10.5
2018-03-11T07:31:03.242Z,10.5
2018-03-11T07:32:03.187Z,10.44
2018-03-11T07:33:03.199Z,10.44
2018-03-11T07:34:03.201Z,10.44
2018-03-11T07:35:03.241Z,10.38
2018-03-11T07:36:03.642Z,10.44
2018-03-11T07:37:03.212Z,10.38
2018-03-11T07:38:03.232Z,10.38
2018-03-11T07:39:03.208Z,10.44
2018-03-11T07:40:03.297Z,10.38
2018-03-11T07:41:03.234Z,10.44
2018-03-11T07:42:03.238Z,10.38
2018-03-11T07:43:03.239Z,10.44
2018-03-11T07:44:03.239Z,10.38
2018-03-11T07:45:03.299Z,10.44
2018-03-11T07:46:03.268Z,10.44
2018-03-11T07:47:03.244Z,10.5
2018-03-11T07:48:03.290Z,10.5
2018-03-11T07:49:03.261Z,10.5
2018-03-11T07:50:03.285Z,10.56
2018-03-11T07:51:03.251Z,10.56
2018-03-11T07:52:03.256Z,10.56
2018-03-11T07:53:03.262Z,10.56
2018-03-11T07:54:03.338Z,10.56
2018-03-11T07:55:03.279Z,10.63
2018-03-11T07:56:03.282Z,10.63
2018-03-11T07:57:03.309Z,10.69
2018-03-11T07:58:03.308Z,10.69
2018-03-11T07:59:03.328Z,10.69
2018-03-11T08:00:03.298Z,10.75
2018-03-11T08:01:03.307Z,10.75
2018-03-11T08:02:03.286Z,10.75
2018-03-11T08:03:03.306Z,10.75
2018-03-11T08:04:03.326Z,10.75
2018-03-11T08:05:04.385Z,10.75
2018-03-11T08:06:03.323Z,10.75
2018-03-11T08:07:03.368Z,10.81
2018-03-11T08:08:03.324Z,10.75
2018-03-11T08:09:03.340Z,10.81
2018-03-11T08:10:03.331Z,10.75
2018-03-11T08:11:03.327Z,10.75
2018-03-11T08:12:03.333Z,10.81
2018-03-11T08:13:03.350Z,10.81
2018-03-11T08:14:03.351Z,10.81
2018-03-11T08:15:03.344Z,10.75
2018-03-11T08:16:03.353Z,10.81
2018-03-11T08:17:03.356Z,10.81
2018-03-11T08:18:03.349Z,10.81
2018-03-11T08:19:03.372Z,10.81
2018-03-11T08:20:03.381Z,10.75
2018-03-11T08:21:03.382Z,10.81
2018-03-11T08:22:03.464Z,10.81
2018-03-11T08:23:03.434Z,10.81
2018-03-11T08:24:03.380Z,10.81
2018-03-11T08:25:03.372Z,10.75
2018-03-11T08:26:03.373Z,10.81
2018-03-11T08:27:03.389Z,10.81
2018-03-11T08:28:03.393Z,10.81
2018-03-11T08:29:03.407Z,10.75
2018-03-11T08:30:03.386Z,10.81
2018-03-11T08:31:03.386Z,10.81
2018-03-11T08:32:03.381Z,10.75
2018-03-11T08:33:03.499Z,10.81
2018-03-11T08:34:03.398Z,10.75
2018-03-11T08:35:03.395Z,10.75
2018-03-11T08:36:03.818Z,10.81
2018-03-11T08:37:03.415Z,10.75
2018-03-11T08:38:03.442Z,10.81
2018-03-11T08:39:03.425Z,10.81
2018-03-11T08:40:03.423Z,10.75
2018-03-11T08:41:03.399Z,10.75
2018-03-11T08:42:03.434Z,10.75
2018-03-11T08:43:03.424Z,10.81
2018-03-11T08:44:03.413Z,10.75
2018-03-11T08:45:03.562Z,10.75
2018-03-11T08:46:03.431Z,10.81
2018-03-11T08:47:03.421Z,10.81
2018-03-11T08:48:03.423Z,10.81
2018-03-11T08:49:03.435Z,10.81
2018-03-11T08:50:03.450Z,10.81
2018-03-11T08:51:03.445Z,10.75
2018-03-11T08:52:03.456Z,10.81
2018-03-11T08:53:03.446Z,10.81
2018-03-11T08:54:03.443Z,10.75
2018-03-11T08:55:03.472Z,10.81
2018-03-11T08:56:03.466Z,10.81
2018-03-11T08:57:03.483Z,10.81
2018-03-11T08:58:03.497Z,10.75
2018-03-11T08:59:03.540Z,10.81
2018-03-11T09:00:03.487Z,10.75
2018-03-11T09:01:03.528Z,10.81
2018-03-11T09:02:03.484Z,10.75
2018-03-11T09:03:03.492Z,10.81
2018-03-11T09:04:03.502Z,10.81
2018-03-11T09:05:03.869Z,10.81
2018-03-11T09:06:03.478Z,10.81
2018-03-11T09:07:03.515Z,10.75
2018-03-11T09:08:03.493Z,10.81
2018-03-11T09:09:03.500Z,10.75
2018-03-11T09:10:03.523Z,10.81
2018-03-11T09:11:03.519Z,10.81
2018-03-11T09:12:03.522Z,10.75
2018-03-11T09:13:03.516Z,10.81
2018-03-11T09:14:03.531Z,10.75
2018-03-11T09:15:03.540Z,10.81
2018-03-11T09:16:03.555Z,10.81
2018-03-11T09:17:03.552Z,10.81
2018-03-11T09:18:03.552Z,10.81
2018-03-11T09:19:03.568Z,10.81
2018-03-11T09:20:03.564Z,10.75
2018-03-11T09:21:03.559Z,10.81
2018-03-11T09:22:03.596Z,10.81
2018-03-11T09:23:03.551Z,10.81
2018-03-11T09:24:03.558Z,10.81
2018-03-11T09:25:03.565Z,10.81
2018-03-11T09:26:03.625Z,10.81
2018-03-11T09:27:03.622Z,10.81
2018-03-11T09:28:03.576Z,10.81
2018-03-11T09:29:03.603Z,10.88
2018-03-11T09:30:03.582Z,10.88
2018-03-11T09:31:03.593Z,10.81
2018-03-11T09:32:03.591Z,10.88
2018-03-11T09:33:03.720Z,10.88
2018-03-11T09:34:03.764Z,10.88
2018-03-11T09:35:03.715Z,10.94
2018-03-11T09:36:03.709Z,10.94
2018-03-11T09:37:03.698Z,10.94
2018-03-11T09:38:03.722Z,10.94
2018-03-11T09:39:03.740Z,11
2018-03-11T09:40:03.682Z,10.94
2018-03-11T09:41:03.757Z,11
2018-03-11T09:42:03.720Z,11
2018-03-11T09:43:03.719Z,11
2018-03-11T09:44:03.723Z,11.06
2018-03-11T09:45:03.808Z,11
2018-03-11T09:46:03.656Z,11
2018-03-11T09:47:03.646Z,11
2018-03-11T09:48:03.645Z,11
2018-03-11T09:49:03.754Z,11.06
2018-03-11T09:50:03.662Z,11
2018-03-11T09:51:03.645Z,11
2018-03-11T09:52:03.692Z,11.06
2018-03-11T09:53:03.678Z,11.06
2018-03-11T09:54:03.677Z,11.06
2018-03-11T09:55:03.689Z,11.06
2018-03-11T09:56:03.691Z,11.06
2018-03-11T09:57:03.690Z,11.06
2018-03-11T09:58:03.764Z,11.06
2018-03-11T09:59:03.716Z,11.06
2018-03-11T10:00:03.712Z,11.06
2018-03-11T10:01:03.704Z,11.06
2018-03-11T10:02:04.129Z,11.12
2018-03-11T10:03:03.841Z,11.06
2018-03-11T10:04:03.722Z,11.06
2018-03-11T10:05:03.727Z,11.12
2018-03-11T10:06:03.728Z,11.12
2018-03-11T10:07:03.765Z,11.12
2018-03-11T10:08:03.738Z,11.12
2018-03-11T10:09:03.799Z,11.12
2018-03-11T10:10:03.728Z,11.12
2018-03-11T10:11:03.730Z,11.12
2018-03-11T10:12:03.737Z,11.19
2018-03-11T10:13:03.767Z,11.19
2018-03-11T10:14:03.797Z,11.19
2018-03-11T10:15:03.764Z,11.19
2018-03-11T10:16:03.750Z,11.19
2018-03-11T10:17:03.742Z,11.19
2018-03-11T10:18:04.032Z,11.19
2018-03-11T10:19:03.796Z,11.19
2018-03-11T10:20:03.782Z,11.19
2018-03-11T10:21:04.208Z,11.19
2018-03-11T10:22:03.759Z,11.19
2018-03-11T10:23:03.795Z,11.19
2018-03-11T10:24:03.779Z,11.25
2018-03-11T10:25:03.906Z,11.25
2018-03-11T10:26:03.761Z,11.25
2018-03-11T10:27:03.782Z,11.25
2018-03-11T10:28:04.035Z,11.25
2018-03-11T10:29:03.792Z,11.31
2018-03-11T10:30:04.320Z,11.25
2018-03-11T10:31:03.801Z,11.31
2018-03-11T10:32:03.845Z,11.31
2018-03-11T10:33:03.948Z,11.31
2018-03-11T10:34:03.816Z,11.31
2018-03-11T10:35:03.816Z,11.31
2018-03-11T10:36:03.812Z,11.38
2018-03-11T10:37:03.891Z,11.38
2018-03-11T10:38:03.808Z,11.38
2018-03-11T10:39:03.803Z,11.44
2018-03-11T10:40:03.901Z,11.38
2018-03-11T10:41:03.817Z,11.44
2018-03-11T10:42:03.894Z,11.38
2018-03-11T10:43:03.831Z,11.44
2018-03-11T10:44:03.830Z,11.44
2018-03-11T10:45:03.951Z,11.44
2018-03-11T10:46:03.838Z,11.44
2018-03-11T10:47:03.919Z,11.44
2018-03-11T10:48:03.849Z,11.5
2018-03-11T10:49:03.844Z,11.5
2018-03-11T10:50:03.827Z,11.5
2018-03-11T10:51:03.851Z,11.5
2018-03-11T10:52:03.885Z,11.44
2018-03-11T10:53:04.258Z,11.56
2018-03-11T10:54:03.930Z,11.5
2018-03-11T10:55:03.883Z,11.5
2018-03-11T10:56:03.878Z,11.5
2018-03-11T10:57:03.896Z,11.5
2018-03-11T10:58:04.101Z,11.56
2018-03-11T10:59:03.916Z,11.56
2018-03-11T11:00:03.898Z,11.56
2018-03-11T11:01:03.880Z,11.56
2018-03-11T11:02:04.054Z,11.56
2018-03-11T11:03:03.921Z,11.56
2018-03-11T11:04:03.900Z,11.56
2018-03-11T11:05:03.971Z,11.63
2018-03-11T11:06:03.896Z,11.63
2018-03-11T11:07:03.964Z,11.63
2018-03-11T11:08:03.938Z,11.69
2018-03-11T11:09:03.904Z,11.63
2018-03-11T11:10:03.905Z,11.63
2018-03-11T11:11:03.969Z,11.63
2018-03-11T11:12:09.380Z,11.69
2018-03-11T11:13:07.954Z,11.69
2018-03-11T11:14:05.163Z,11.69
2018-03-11T11:15:03.940Z,11.75
2018-03-11T11:16:03.974Z,11.75
2018-03-11T11:17:03.976Z,11.75
2018-03-11T11:18:04.000Z,11.75
2018-03-11T11:19:04.007Z,11.75
2018-03-11T11:20:03.956Z,11.75
2018-03-11T11:21:04.019Z,11.75
2018-03-11T11:22:14.610Z,11.75
2018-03-11T11:23:17.676Z,11.81
2018-03-11T11:24:03.987Z,11.81
2018-03-11T11:25:04.058Z,11.81
2018-03-11T11:26:04.052Z,11.81
2018-03-11T11:27:03.993Z,11.88
2018-03-11T11:28:03.993Z,11.88
2018-03-11T11:29:04.102Z,11.88
2018-03-11T11:30:04.010Z,11.88
2018-03-11T11:31:04.088Z,11.88
2018-03-11T11:32:04.037Z,11.94
2018-03-11T11:33:04.033Z,11.94
2018-03-11T11:34:04.060Z,12
2018-03-11T11:35:04.027Z,12
2018-03-11T11:36:04.031Z,12
2018-03-11T11:37:04.046Z,12
2018-03-11T11:38:04.210Z,12
2018-03-11T11:39:04.049Z,12.06
2018-03-11T11:40:04.106Z,12
2018-03-11T11:41:04.045Z,12.13
2018-03-11T11:42:04.057Z,12.13
2018-03-11T11:43:04.135Z,12.13
2018-03-11T11:44:04.080Z,12.19
2018-03-11T11:45:04.070Z,12.19
2018-03-11T11:46:04.354Z,12.25
2018-03-11T11:47:04.115Z,12.31
2018-03-11T11:48:04.094Z,12.31
2018-03-11T11:49:04.072Z,12.31
2018-03-11T11:50:04.092Z,12.37
2018-03-11T11:51:04.094Z,12.44
2018-03-11T11:52:04.110Z,12.44
2018-03-11T11:53:04.127Z,12.44
2018-03-11T11:54:04.101Z,12.5
2018-03-11T11:55:04.093Z,12.44
2018-03-11T11:56:04.142Z,12.5
2018-03-11T11:57:04.102Z,12.5
2018-03-11T11:58:04.352Z,12.5
2018-03-11T11:59:04.121Z,12.56
2018-03-11T12:00:04.108Z,12.56
2018-03-11T12:01:04.138Z,12.63
2018-03-11T12:02:04.111Z,12.63
2018-03-11T12:03:04.136Z,12.69
2018-03-11T12:04:04.128Z,12.69
2018-03-11T12:05:04.144Z,12.69
2018-03-11T12:06:04.111Z,12.75
2018-03-11T12:07:04.500Z,12.69
2018-03-11T12:08:04.131Z,12.75
2018-03-11T12:09:04.140Z,12.75
2018-03-11T12:10:04.222Z,12.81
2018-03-11T12:11:04.150Z,12.81
2018-03-11T12:12:04.353Z,12.88
2018-03-11T12:13:04.212Z,12.94
2018-03-11T12:14:04.173Z,12.94
2018-03-11T12:15:04.172Z,13
2018-03-11T12:16:04.171Z,13.06
2018-03-11T12:17:04.215Z,13.13
2018-03-11T12:18:04.212Z,13.19
2018-03-11T12:19:04.215Z,13.19
2018-03-11T12:20:04.194Z,13.31
2018-03-11T12:21:04.218Z,13.31
2018-03-11T12:22:04.208Z,13.44
2018-03-11T12:23:04.221Z,13.44
2018-03-11T12:24:04.213Z,13.44
2018-03-11T12:25:04.185Z,13.56
2018-03-11T12:26:04.210Z,13.56
2018-03-11T12:27:04.214Z,13.56
2018-03-11T12:28:04.488Z,13.62
2018-03-11T12:29:04.212Z,13.62
2018-03-11T12:30:04.211Z,13.62
2018-03-11T12:31:04.211Z,13.56
2018-03-11T12:32:04.235Z,13.62
2018-03-11T12:33:04.265Z,13.62
2018-03-11T12:34:04.236Z,13.62
2018-03-11T12:35:04.252Z,13.62
2018-03-11T12:36:04.242Z,13.62
2018-03-11T12:37:04.240Z,13.69
2018-03-11T12:38:04.233Z,13.69
2018-03-11T12:39:04.232Z,13.69
2018-03-11T12:40:04.271Z,13.75
2018-03-11T12:41:04.625Z,13.75
2018-03-11T12:42:04.274Z,13.75
2018-03-11T12:43:04.254Z,13.81
2018-03-11T12:44:04.253Z,13.81
2018-03-11T12:45:04.276Z,13.81
2018-03-11T12:46:04.290Z,13.81
2018-03-11T12:47:04.494Z,13.81
2018-03-11T12:48:04.260Z,13.88
2018-03-11T12:49:04.257Z,13.88
2018-03-11T12:50:04.321Z,13.94
2018-03-11T12:51:04.304Z,13.94
2018-03-11T12:52:04.262Z,14
2018-03-11T12:53:04.276Z,13.94
2018-03-11T12:54:04.280Z,14
2018-03-11T12:55:04.318Z,14.06
2018-03-11T12:56:04.321Z,14
2018-03-11T12:57:04.321Z,14.13
2018-03-11T12:58:04.499Z,14.13
2018-03-11T12:59:04.290Z,14.19
2018-03-11T13:00:04.290Z,14.19
2018-03-11T13:01:04.554Z,14.19
2018-03-11T13:02:04.286Z,14.25
2018-03-11T13:03:04.309Z,14.25
2018-03-11T13:04:04.319Z,14.25
2018-03-11T13:05:04.313Z,14.25
2018-03-11T13:06:04.358Z,14.25